createdAt,value
2017-05-01T00:00:03.433Z,31.08
2017-05-01T00:01:04.724Z,31.08
2017-05-01T00:02:06.009Z,31.08
2017-05-01T00:03:07.293Z,30.60
2017-05-01T00:04:08.585Z,30.77
2017-05-01T00:05:09.863Z,30.69
2017-05-01T00:06:11.147Z,30.69
2017-05-01T00:07:12.433Z,30.87
2017-05-01T00:08:13.718Z,31.18
2017-05-01T00:09:15.001Z,31.08
2017-05-01T00:10:16.285Z,31.08
2017-05-01T00:11:17.570Z,31.35
2017-05-01T00:12:18.855Z,31.75
2017-05-01T00:13:20.141Z,31.54
2017-05-01T00:14:21.423Z,31.54
2017-05-01T00:15:22.708Z,31.74
2017-05-01T00:16:23.992Z,31.64
2017-05-01T00:17:25.277Z,31.65
2017-05-01T00:18:26.569Z,31.54
2017-05-01T00:19:27.850Z,31.65
2017-05-01T00:20:29.134Z,31.56
2017-05-01T00:21:30.420Z,31.54
2017-05-01T00:22:31.704Z,31.74
2017-05-01T00:23:32.989Z,31.65
2017-05-01T00:24:34.273Z,31.45
2017-05-01T00:25:35.557Z,31.46
2017-05-01T00:26:36.842Z,31.46
2017-05-01T00:27:38.127Z,31.54
2017-05-01T00:28:39.411Z,31.54
2017-05-01T00:29:40.696Z,31.64
2017-05-01T00:30:41.982Z,31.56
2017-05-01T00:31:43.266Z,31.65
2017-05-01T00:32:44.552Z,31.54
2017-05-01T00:33:45.834Z,31.85
2017-05-01T00:34:47.119Z,31.46
2017-05-01T00:35:48.402Z,31.54
2017-05-01T00:36:49.688Z,31.46
2017-05-01T00:37:50.972Z,31.75
2017-05-01T00:38:52.256Z,31.65
2017-05-01T00:39:53.539Z,31.46
2017-05-01T00:40:54.825Z,31.26
2017-05-01T00:41:56.109Z,31.65
2017-05-01T00:42:57.393Z,31.18
2017-05-01T00:43:58.678Z,31.54
2017-05-01T00:44:59.965Z,31.54
2017-05-01T00:46:01.248Z,31.54
2017-05-01T00:47:02.533Z,31.35
2017-05-01T00:48:03.817Z,31.35
2017-05-01T00:49:05.103Z,31.35
2017-05-01T00:50:06.385Z,31.64
2017-05-01T00:51:07.673Z,31.35
2017-05-01T00:52:08.955Z,31.54
2017-05-01T00:53:10.238Z,31.45
2017-05-01T00:54:11.524Z,31.46
2017-05-01T00:55:12.810Z,31.56
2017-05-01T00:56:14.094Z,31.35
2017-05-01T00:57:15.379Z,31.45
2017-05-01T00:58:16.663Z,31.54
2017-05-01T00:59:17.949Z,31.54
2017-05-01T01:00:19.240Z,31.64
2017-05-01T01:01:20.524Z,31.64
2017-05-01T01:02:21.806Z,31.64
2017-05-01T01:03:23.094Z,31.54
2017-05-01T01:04:24.376Z,31.45
2017-05-01T01:05:25.660Z,31.64
2017-05-01T01:06:26.950Z,31.45
2017-05-01T01:07:28.234Z,31.35
2017-05-01T01:08:29.520Z,31.16
2017-05-01T01:09:30.803Z,31.35
2017-05-01T01:10:32.085Z,31.45
2017-05-01T01:11:33.372Z,31.45
2017-05-01T01:12:34.656Z,31.35
2017-05-01T01:13:35.943Z,31.26
2017-05-01T01:14:37.224Z,31.06
2017-05-01T01:15:38.511Z,30.97
2017-05-01T01:16:39.795Z,31.26
2017-05-01T01:17:41.081Z,31.16
2017-05-01T01:18:42.367Z,31.54
2017-05-01T01:19:43.651Z,31.45
2017-05-01T01:20:44.937Z,31.54
2017-05-01T01:21:46.220Z,31.74
2017-05-01T01:22:47.507Z,31.54
2017-05-01T01:23:48.791Z,31.35
2017-05-01T01:24:50.075Z,31.54
2017-05-01T01:25:51.358Z,31.54
2017-05-01T01:26:52.643Z,31.83
2017-05-01T01:27:53.930Z,31.54
2017-05-01T01:28:55.214Z,31.45
2017-05-01T01:29:56.496Z,31.54
2017-05-01T01:30:57.806Z,31.45
2017-05-01T01:31:59.065Z,31.64
2017-05-01T01:33:00.350Z,31.64
2017-05-01T01:34:01.637Z,31.54
2017-05-01T01:35:02.920Z,31.64
2017-05-01T01:36:04.205Z,31.16
2017-05-01T01:37:05.490Z,31.35
2017-05-01T01:38:06.773Z,31.26
2017-05-01T01:39:08.057Z,31.54
2017-05-01T01:40:09.341Z,31.54
2017-05-01T01:41:10.625Z,31.26
2017-05-01T01:42:11.909Z,31.26
2017-05-01T01:43:13.194Z,31.54
2017-05-01T01:44:14.476Z,31.45
2017-05-01T01:45:15.764Z,31.45
2017-05-01T01:46:17.050Z,31.54
2017-05-01T01:47:18.337Z,31.64
2017-05-01T01:48:19.617Z,31.64
2017-05-01T01:49:20.901Z,31.35
2017-05-01T01:50:22.187Z,31.64
2017-05-01T01:51:23.471Z,31.45
2017-05-01T01:52:24.756Z,31.45
2017-05-01T01:53:26.038Z,31.35
2017-05-01T01:54:27.321Z,31.45
2017-05-01T01:55:28.608Z,31.45
2017-05-01T01:56:29.893Z,31.45
2017-05-01T01:57:31.181Z,31.45
2017-05-01T01:58:32.466Z,31.26
2017-05-01T01:59:33.750Z,31.64
2017-05-01T02:00:35.034Z,31.45
2017-05-01T02:01:36.319Z,31.26
2017-05-01T02:02:37.604Z,31.06
2017-05-01T02:03:38.890Z,31.26
2017-05-01T02:04:40.174Z,31.54
2017-05-01T02:05:41.458Z,31.16
2017-05-01T02:06:42.743Z,31.35
2017-05-01T02:07:44.031Z,31.54
2017-05-01T02:08:45.313Z,31.54
2017-05-01T02:09:46.598Z,31.35
2017-05-01T02:10:47.881Z,31.54
2017-05-01T02:11:49.165Z,31.64
2017-05-01T02:12:50.451Z,31.45
2017-05-01T02:13:51.735Z,31.26
2017-05-01T02:14:53.020Z,31.54
2017-05-01T02:15:54.306Z,31.54
2017-05-01T02:16:55.589Z,31.54
2017-05-01T02:17:56.875Z,31.45
2017-05-01T02:18:58.158Z,31.45
2017-05-01T02:19:59.441Z,31.45
2017-05-01T02:21:00.729Z,31.26
2017-05-01T02:22:02.013Z,31.45
2017-05-01T02:23:03.295Z,31.54
2017-05-01T02:24:04.577Z,31.45
2017-05-01T02:25:05.862Z,31.45
2017-05-01T02:26:07.150Z,31.54
2017-05-01T02:27:08.435Z,31.16
2017-05-01T02:28:09.719Z,31.54
2017-05-01T02:29:11.003Z,31.54
2017-05-01T02:30:12.291Z,31.45
2017-05-01T02:31:13.573Z,31.06
2017-05-01T02:32:14.858Z,31.26
2017-05-01T02:33:16.141Z,31.26
2017-05-01T02:34:17.425Z,31.16
2017-05-01T02:35:18.711Z,31.35
2017-05-01T02:36:20.001Z,31.26
2017-05-01T02:37:21.288Z,31.35
2017-05-01T02:38:22.572Z,31.16
2017-05-01T02:39:23.856Z,31.35
2017-05-01T02:40:25.140Z,31.26
2017-05-01T02:41:26.424Z,31.64
2017-05-01T02:42:27.710Z,31.64
2017-05-01T02:43:28.994Z,31.45
2017-05-01T02:44:30.276Z,31.74
2017-05-01T02:45:31.561Z,31.54
2017-05-01T02:46:32.845Z,31.64
2017-05-01T02:47:34.129Z,31.64
2017-05-01T02:48:35.414Z,31.74
2017-05-01T02:49:36.698Z,31.54
2017-05-01T02:50:37.980Z,31.54
2017-05-01T02:51:39.268Z,31.54
2017-05-01T02:52:40.554Z,31.54
2017-05-01T02:53:41.840Z,31.45
2017-05-01T02:54:43.121Z,31.45
2017-05-01T02:55:44.407Z,31.34
2017-05-01T02:56:45.691Z,31.45
2017-05-01T02:57:46.977Z,31.54
2017-05-01T02:58:48.259Z,31.45
2017-05-01T02:59:49.543Z,31.54
2017-05-01T03:00:50.829Z,31.54
2017-05-01T03:01:52.114Z,31.64
2017-05-01T03:02:53.430Z,31.16
2017-05-01T03:03:54.683Z,31.16
2017-05-01T03:04:55.966Z,31.54
2017-05-01T03:05:57.254Z,31.45
2017-05-01T03:06:58.539Z,31.34
2017-05-01T03:07:59.824Z,31.54
2017-05-01T03:09:01.108Z,31.26
2017-05-01T03:10:02.405Z,31.64
2017-05-01T03:11:03.690Z,31.06
2017-05-01T03:12:04.976Z,31.43
2017-05-01T03:13:06.260Z,31.45
2017-05-01T03:14:07.545Z,31.35
2017-05-01T03:15:08.828Z,31.45
2017-05-01T03:16:10.114Z,31.64
2017-05-01T03:17:11.399Z,31.64
2017-05-01T03:18:12.682Z,31.64
2017-05-01T03:19:13.966Z,31.45
2017-05-01T03:20:15.250Z,31.45
2017-05-01T03:21:16.550Z,31.54
2017-05-01T03:22:17.824Z,31.64
2017-05-01T03:23:19.108Z,31.45
2017-05-01T03:24:20.387Z,31.35
2017-05-01T03:25:21.672Z,31.64
2017-05-01T03:26:22.958Z,31.45
2017-05-01T03:27:24.242Z,31.64
2017-05-01T03:28:25.525Z,31.54
2017-05-01T03:29:26.812Z,31.45
2017-05-01T03:30:28.097Z,31.74
2017-05-01T03:31:29.382Z,31.64
2017-05-01T03:32:30.665Z,31.54
2017-05-01T03:33:31.950Z,31.74
2017-05-01T03:34:33.233Z,31.64
2017-05-01T03:35:34.518Z,31.74
2017-05-01T03:36:35.803Z,31.45
2017-05-01T03:37:37.089Z,31.35
2017-05-01T03:38:38.371Z,31.64
2017-05-01T03:39:39.655Z,31.74
2017-05-01T03:40:40.939Z,31.45
2017-05-01T03:41:42.223Z,31.64
2017-05-01T03:42:43.508Z,31.54
2017-05-01T03:43:44.793Z,31.53
2017-05-01T03:44:46.080Z,31.62
2017-05-01T03:45:47.362Z,31.54
2017-05-01T03:46:48.644Z,31.64
2017-05-01T03:47:49.928Z,31.54
2017-05-01T03:48:51.214Z,31.64
2017-05-01T03:49:52.501Z,31.64
2017-05-01T03:50:53.784Z,31.74
2017-05-01T03:51:55.069Z,31.64
2017-05-01T03:52:56.355Z,31.54
2017-05-01T03:53:57.640Z,31.64
2017-05-01T03:54:58.923Z,31.64
2017-05-01T03:56:00.209Z,31.64
2017-05-01T03:57:01.490Z,31.54
2017-05-01T03:58:02.776Z,31.64
2017-05-01T03:59:04.056Z,31.62
2017-05-01T04:00:05.347Z,31.54
2017-05-01T04:01:06.631Z,31.35
2017-05-01T04:02:07.911Z,32.12
2017-05-01T04:03:09.219Z,32.31
2017-05-01T04:04:10.500Z,32.51
2017-05-01T04:05:11.786Z,32.70
2017-05-01T04:06:13.070Z,32.41
2017-05-01T04:07:14.353Z,32.21
2017-05-01T04:08:15.649Z,32.41
2017-05-01T04:09:16.924Z,32.98
2017-05-01T04:10:18.208Z,32.51
2017-05-01T04:11:19.493Z,32.70
2017-05-01T04:12:20.796Z,32.60
2017-05-01T04:13:22.099Z,32.31
2017-05-01T04:14:23.386Z,32.31
2017-05-01T04:15:24.670Z,32.89
2017-05-01T04:16:25.957Z,32.51
2017-05-01T04:17:27.242Z,32.60
2017-05-01T04:18:28.533Z,32.31
2017-05-01T04:19:29.817Z,32.41
2017-05-01T04:20:31.104Z,32.21
2017-05-01T04:21:32.387Z,32.43
2017-05-01T04:22:33.671Z,32.41
2017-05-01T04:23:34.960Z,32.31
2017-05-01T04:24:36.255Z,32.23
2017-05-01T04:25:37.541Z,32.14
2017-05-01T04:26:38.827Z,32.14
2017-05-01T04:27:40.113Z,31.85
2017-05-01T04:28:41.401Z,32.23
2017-05-01T04:29:42.688Z,32.04
2017-05-01T04:30:43.973Z,32.14
2017-05-01T04:31:45.257Z,32.23
2017-05-01T04:32:46.542Z,32.23
2017-05-01T04:33:47.829Z,31.95
2017-05-01T04:34:49.118Z,31.95
2017-05-01T04:35:50.402Z,31.75
2017-05-01T04:36:51.689Z,31.95
2017-05-01T04:37:52.979Z,31.46
2017-05-01T04:38:54.262Z,31.46
2017-05-01T04:39:55.548Z,31.37
2017-05-01T04:40:56.833Z,31.65
2017-05-01T04:41:58.118Z,31.65
2017-05-01T04:42:59.405Z,31.65
2017-05-01T04:44:00.689Z,31.56
2017-05-01T04:45:01.976Z,31.75
2017-05-01T04:46:03.259Z,31.56
2017-05-01T04:47:04.546Z,31.46
2017-05-01T04:48:05.831Z,31.56
2017-05-01T04:49:07.119Z,31.48
2017-05-01T04:50:08.403Z,31.48
2017-05-01T04:51:09.689Z,31.57
2017-05-01T04:52:10.974Z,31.57
2017-05-01T04:53:12.259Z,31.57
2017-05-01T04:54:13.547Z,31.19
2017-05-01T04:55:14.834Z,31.19
2017-05-01T04:56:16.120Z,31.19
2017-05-01T04:57:17.405Z,31.00
2017-05-01T04:58:18.697Z,31.19
2017-05-01T04:59:19.976Z,31.19
2017-05-01T05:00:21.262Z,31.19
2017-05-01T05:01:22.549Z,31.00
2017-05-01T05:02:23.836Z,31.00
2017-05-01T05:03:25.124Z,31.19
2017-05-01T05:04:26.414Z,31.00
2017-05-01T05:05:27.701Z,30.90
2017-05-01T05:06:28.990Z,31.29
2017-05-01T05:07:30.279Z,31.21
2017-05-01T05:08:31.568Z,31.09
2017-05-01T05:09:32.855Z,30.71
2017-05-01T05:10:34.143Z,30.80
2017-05-01T05:11:35.430Z,30.80
2017-05-01T05:12:36.718Z,30.82
2017-05-01T05:13:38.005Z,30.82
2017-05-01T05:14:39.291Z,30.73
2017-05-01T05:15:40.581Z,30.80
2017-05-01T05:16:41.869Z,30.63
2017-05-01T05:17:43.159Z,30.82
2017-05-01T05:18:44.447Z,30.82
2017-05-01T05:19:45.735Z,30.82
2017-05-01T05:20:47.023Z,30.61
2017-05-01T05:21:48.310Z,30.91
2017-05-01T05:22:49.600Z,30.82
2017-05-01T05:23:50.889Z,30.82
2017-05-01T05:24:52.177Z,30.73
2017-05-01T05:25:53.466Z,30.61
2017-05-01T05:26:54.753Z,30.82
2017-05-01T05:27:56.042Z,30.82
2017-05-01T05:28:57.336Z,30.80
2017-05-01T05:29:58.620Z,30.61
2017-05-01T05:30:59.905Z,31.09
2017-05-01T05:32:01.192Z,31.19
2017-05-01T05:33:02.482Z,30.52
2017-05-01T05:34:03.796Z,31.19
2017-05-01T05:35:05.126Z,31.19
2017-05-01T05:36:06.414Z,31.11
2017-05-01T05:37:07.702Z,31.19
2017-05-01T05:38:08.993Z,31.19
2017-05-01T05:39:10.279Z,31.19
2017-05-01T05:40:11.568Z,31.21
2017-05-01T05:41:12.860Z,31.21
2017-05-01T05:42:14.146Z,31.11
2017-05-01T05:43:15.439Z,31.00
2017-05-01T05:44:16.728Z,31.09
2017-05-01T05:45:18.013Z,31.19
2017-05-01T05:46:19.305Z,31.29
2017-05-01T05:47:20.596Z,31.00
2017-05-01T05:48:21.884Z,31.38
2017-05-01T05:49:23.174Z,31.19
2017-05-01T05:50:24.469Z,31.19
2017-05-01T05:51:25.750Z,31.19
2017-05-01T05:52:27.052Z,31.57
2017-05-01T05:53:28.340Z,31.57
2017-05-01T05:54:29.631Z,31.48
2017-05-01T05:55:30.938Z,31.57
2017-05-01T05:56:32.225Z,31.48
2017-05-01T05:57:33.512Z,31.29
2017-05-01T05:58:34.801Z,31.48
2017-05-01T05:59:36.094Z,31.57
2017-05-01T06:00:37.391Z,31.67
2017-05-01T06:01:38.676Z,31.67
2017-05-01T06:02:39.962Z,31.67
2017-05-01T06:03:41.279Z,31.57
2017-05-01T06:04:42.567Z,31.57
2017-05-01T06:05:43.855Z,31.48
2017-05-01T06:06:45.142Z,31.67
2017-05-01T06:07:46.428Z,31.67
2017-05-01T06:08:47.716Z,31.48
2017-05-01T06:09:49.003Z,31.48
2017-05-01T06:10:50.296Z,31.57
2017-05-01T06:11:51.580Z,31.77
2017-05-01T06:12:52.870Z,31.67
2017-05-01T06:13:54.158Z,31.77
2017-05-01T06:14:55.449Z,31.57
2017-05-01T06:15:56.736Z,31.48
2017-05-01T06:16:58.025Z,31.48
2017-05-01T06:17:59.312Z,31.48
2017-05-01T06:19:00.600Z,31.57
2017-05-01T06:20:01.890Z,31.57
2017-05-01T06:21:03.179Z,31.77
2017-05-01T06:22:04.468Z,31.87
2017-05-01T06:23:05.756Z,31.77
2017-05-01T06:24:07.044Z,32.06
2017-05-01T06:25:08.335Z,32.25
2017-05-01T06:26:09.620Z,32.15
2017-05-01T06:27:10.909Z,32.25
2017-05-01T06:28:12.197Z,32.34
2017-05-01T06:29:13.491Z,32.34
2017-05-01T06:30:14.778Z,32.44
2017-05-01T06:31:16.066Z,32.15
2017-05-01T06:32:17.357Z,32.15
2017-05-01T06:33:18.673Z,32.25
2017-05-01T06:34:19.956Z,32.25
2017-05-01T06:35:21.245Z,32.15
2017-05-01T06:36:22.562Z,31.96
2017-05-01T06:37:23.852Z,31.38
2017-05-01T06:38:25.166Z,31.57
2017-05-01T06:39:26.432Z,31.38
2017-05-01T06:40:29.295Z,31.57
2017-05-01T06:41:29.784Z,31.57
2017-05-01T06:42:31.069Z,31.57
2017-05-01T06:43:32.364Z,31.77
2017-05-01T06:44:34.219Z,31.67
2017-05-01T06:45:35.378Z,31.48
2017-05-01T06:46:36.726Z,31.49
2017-05-01T06:47:38.012Z,31.29
2017-05-01T06:48:39.299Z,31.59
2017-05-01T06:49:40.589Z,31.29
2017-05-01T06:50:41.877Z,31.30
2017-05-01T06:51:43.165Z,31.21
2017-05-01T06:52:44.454Z,31.11
2017-05-01T06:53:45.739Z,31.11
2017-05-01T06:54:47.036Z,31.21
2017-05-01T06:55:48.323Z,31.11
2017-05-01T06:56:49.616Z,31.21
2017-05-01T06:57:50.971Z,31.11
2017-05-01T06:58:52.260Z,31.21
2017-05-01T06:59:53.548Z,30.73
2017-05-01T07:00:54.833Z,30.82
2017-05-01T07:01:56.120Z,30.63
2017-05-01T07:02:57.409Z,30.82
2017-05-01T07:03:58.698Z,30.82
2017-05-01T07:05:00.008Z,30.73
2017-05-01T07:06:01.316Z,30.82
2017-05-01T07:07:02.687Z,30.91
2017-05-01T07:08:03.998Z,30.82
2017-05-01T07:09:05.330Z,30.73
2017-05-01T07:10:06.804Z,30.91
2017-05-01T07:11:08.113Z,30.91
2017-05-01T07:12:09.412Z,30.82
2017-05-01T07:13:10.732Z,30.91
2017-05-01T07:14:12.058Z,30.53
2017-05-01T07:15:13.359Z,30.63
2017-05-01T07:16:14.657Z,30.82
2017-05-01T07:17:15.946Z,30.73
2017-05-01T07:18:17.240Z,30.64
2017-05-01T07:19:18.533Z,30.91
2017-05-01T07:20:19.897Z,30.82
2017-05-01T07:21:21.186Z,30.91
2017-05-01T07:22:22.474Z,30.82
2017-05-01T07:23:23.771Z,30.91
2017-05-01T07:24:25.082Z,31.03
2017-05-01T07:25:26.370Z,30.93
2017-05-01T07:26:28.756Z,30.93
2017-05-01T07:27:30.027Z,30.83
2017-05-01T07:28:31.318Z,30.93
2017-05-01T07:29:32.606Z,30.74
2017-05-01T07:30:33.895Z,31.03
2017-05-01T07:31:35.178Z,31.03
2017-05-01T07:32:36.471Z,30.83
2017-05-01T07:33:37.759Z,30.74
2017-05-01T07:34:39.050Z,30.83
2017-05-01T07:35:40.339Z,30.74
2017-05-01T07:36:41.656Z,30.74
2017-05-01T07:37:42.982Z,30.64
2017-05-01T07:38:44.271Z,30.64
2017-05-01T07:39:45.561Z,30.83
2017-05-01T07:40:47.217Z,30.64
2017-05-01T07:41:48.842Z,30.74
2017-05-01T07:42:50.176Z,30.74
2017-05-01T07:43:51.776Z,30.74
2017-05-01T07:44:53.495Z,30.83
2017-05-01T07:45:55.117Z,30.74
2017-05-01T07:46:56.710Z,30.83
2017-05-01T07:47:59.714Z,30.93
2017-05-01T07:49:01.273Z,30.93
2017-05-01T07:50:07.499Z,31.03
2017-05-01T07:51:09.103Z,31.32
2017-05-01T07:52:10.345Z,31.51
2017-05-01T07:53:11.677Z,31.80
2017-05-01T07:54:13.315Z,32.28
2017-05-01T07:55:14.980Z,32.56
2017-05-01T07:56:16.521Z,32.46
2017-05-01T07:57:18.189Z,33.03
2017-05-01T07:58:19.780Z,34.09
2017-05-01T07:59:21.289Z,34.19
2017-05-01T08:00:22.940Z,34.96
2017-05-01T08:01:24.551Z,35.24
2017-05-01T08:02:26.156Z,34.46
2017-05-01T08:03:27.793Z,35.14
2017-05-01T08:04:29.380Z,35.91
2017-05-01T08:05:30.967Z,36.19
2017-05-01T08:06:32.627Z,36.10
2017-05-01T08:07:34.150Z,35.91
2017-05-01T08:08:35.636Z,35.42
2017-05-01T08:09:37.204Z,36.00
2017-05-01T08:10:38.441Z,36.58
2017-05-01T08:11:40.067Z,36.19
2017-05-01T08:12:41.648Z,37.26
2017-05-01T08:13:43.261Z,36.87
2017-05-01T08:14:44.876Z,37.64
2017-05-01T08:15:46.497Z,38.14
2017-05-01T08:16:47.846Z,36.51
2017-05-01T08:17:49.476Z,38.04
2017-05-01T08:18:51.170Z,38.33
2017-05-01T08:19:52.769Z,39.20
2017-05-01T08:20:54.342Z,38.33
2017-05-01T08:21:55.950Z,38.24
2017-05-01T08:22:57.646Z,38.53
2017-05-01T08:23:59.142Z,42.88
2017-05-01T08:25:00.600Z,45.68
2017-05-01T08:26:02.194Z,42.69
2017-05-01T08:27:03.733Z,41.92
2017-05-01T08:28:05.010Z,41.05
2017-05-01T08:29:06.656Z,40.47
2017-05-01T08:30:08.078Z,39.41
2017-05-01T08:31:09.393Z,38.54
2017-05-01T08:32:11.041Z,37.02
2017-05-01T08:33:12.310Z,36.13
2017-05-01T08:34:13.881Z,36.04
2017-05-01T08:35:15.519Z,36.04
2017-05-01T08:36:17.107Z,35.58
2017-05-01T08:37:18.403Z,35.48
2017-05-01T08:38:20.027Z,35.38
2017-05-01T08:39:21.592Z,35.48
2017-05-01T08:40:23.242Z,35.28
2017-05-01T08:41:24.876Z,35.00
2017-05-01T08:42:26.569Z,35.19
2017-05-01T08:43:28.180Z,35.10
2017-05-01T08:44:29.824Z,35.28
2017-05-01T08:45:31.119Z,35.19
2017-05-01T08:46:32.615Z,35.19
2017-05-01T08:47:34.255Z,34.80
2017-05-01T08:48:35.781Z,34.13
2017-05-01T08:49:37.162Z,34.42
2017-05-01T08:50:38.833Z,34.13
2017-05-01T08:51:40.246Z,34.32
2017-05-01T08:52:41.865Z,34.03
2017-05-01T08:53:43.293Z,33.94
2017-05-01T08:54:44.814Z,33.84
2017-05-01T08:55:46.391Z,33.55
2017-05-01T08:56:47.661Z,33.45
2017-05-01T08:57:49.301Z,33.45
2017-05-01T08:58:50.968Z,33.45
2017-05-01T08:59:52.693Z,33.55
2017-05-01T09:00:54.302Z,33.36
2017-05-01T09:01:55.705Z,33.65
2017-05-01T09:02:56.969Z,33.65
2017-05-01T09:03:58.330Z,33.65
2017-05-01T09:04:59.961Z,33.84
2017-05-01T09:06:01.758Z,33.55
2017-05-01T09:07:03.348Z,33.84
2017-05-01T09:08:04.609Z,33.65
2017-05-01T09:09:06.070Z,33.65
2017-05-01T09:10:07.670Z,33.45
2017-05-01T09:11:09.461Z,33.65
2017-05-01T09:12:15.261Z,33.45
2017-05-01T09:13:16.493Z,33.26
2017-05-01T09:14:17.784Z,33.26
2017-05-01T09:15:19.074Z,33.45
2017-05-01T09:16:20.361Z,33.26
2017-05-01T09:17:21.650Z,33.65
2017-05-01T09:18:22.944Z,33.17
2017-05-01T09:19:24.231Z,33.65
2017-05-01T09:20:25.520Z,33.26
2017-05-01T09:21:26.811Z,33.36
2017-05-01T09:22:28.107Z,33.36
2017-05-01T09:23:29.399Z,33.26
2017-05-01T09:24:30.686Z,33.37
2017-05-01T09:25:31.976Z,32.70
2017-05-01T09:26:33.782Z,32.79
2017-05-01T09:27:35.067Z,32.31
2017-05-01T09:28:40.016Z,32.99
2017-05-01T09:29:43.896Z,32.99
2017-05-01T09:30:45.184Z,32.89
2017-05-01T09:31:46.472Z,33.17
2017-05-01T09:32:47.765Z,33.36
2017-05-01T09:33:49.052Z,33.36
2017-05-01T09:34:50.342Z,33.45
2017-05-01T09:35:51.631Z,33.86
2017-05-01T09:36:52.917Z,34.42
2017-05-01T09:37:57.777Z,35.48
2017-05-01T09:39:02.509Z,35.78
2017-05-01T09:40:06.353Z,35.98
2017-05-01T09:41:07.643Z,35.98
2017-05-01T09:42:08.935Z,36.07
2017-05-01T09:43:10.222Z,35.21
2017-05-01T09:44:13.500Z,35.21
2017-05-01T09:45:17.853Z,35.02
2017-05-01T09:46:19.363Z,34.24
2017-05-01T09:47:20.653Z,34.92
2017-05-01T09:48:22.558Z,35.69
2017-05-01T09:49:26.134Z,35.40
2017-05-01T09:50:29.272Z,34.44
2017-05-01T09:51:30.568Z,33.57
2017-05-01T09:52:31.851Z,33.78
2017-05-01T09:53:33.140Z,35.42
2017-05-01T09:54:34.429Z,35.71
2017-05-01T09:55:35.722Z,34.55
2017-05-01T09:56:37.046Z,34.74
2017-05-01T09:57:38.337Z,33.68
2017-05-01T09:58:40.335Z,33.87
2017-05-01T09:59:41.962Z,34.55
2017-05-01T10:00:43.224Z,34.16
2017-05-01T10:01:45.464Z,34.26
2017-05-01T10:02:49.943Z,34.84
2017-05-01T10:03:51.265Z,35.61
2017-05-01T10:04:53.656Z,33.68
2017-05-01T10:05:55.267Z,32.52
2017-05-01T10:06:57.428Z,32.33
2017-05-01T10:07:58.877Z,32.33
2017-05-01T10:09:00.550Z,32.33
2017-05-01T10:10:02.621Z,32.43
2017-05-01T10:11:03.922Z,32.71
2017-05-01T10:12:05.209Z,32.62
2017-05-01T10:13:06.501Z,32.33
2017-05-01T10:14:07.792Z,32.43
2017-05-01T10:15:09.085Z,39.86
2017-05-01T10:16:10.377Z,40.15
2017-05-01T10:17:11.667Z,40.24
2017-05-01T10:18:12.959Z,39.37
2017-05-01T10:19:14.354Z,38.60
2017-05-01T10:20:15.623Z,38.12
2017-05-01T10:21:16.926Z,37.45
2017-05-01T10:22:18.292Z,37.35
2017-05-01T10:23:20.787Z,36.77
2017-05-01T10:24:24.261Z,35.71
2017-05-01T10:25:25.554Z,36.00
2017-05-01T10:26:27.118Z,35.52
2017-05-01T10:27:29.684Z,34.94
2017-05-01T10:28:34.592Z,34.94
2017-05-01T10:29:42.505Z,34.55
2017-05-01T10:30:50.442Z,34.26
2017-05-01T10:31:56.411Z,33.68
2017-05-01T10:33:00.063Z,33.10
2017-05-01T10:34:02.972Z,33.39
2017-05-01T10:35:04.283Z,33.58
2017-05-01T10:36:05.583Z,33.48
2017-05-01T10:37:06.872Z,33.10
2017-05-01T10:38:08.161Z,33.00
2017-05-01T10:39:09.453Z,32.62
2017-05-01T10:40:13.055Z,32.71
2017-05-01T10:41:16.131Z,32.91
2017-05-01T10:42:19.765Z,32.62
2017-05-01T13:29:28.575Z,38.31
2017-05-01T13:30:32.884Z,37.25
2017-05-01T13:31:35.539Z,36.48
2017-05-01T13:32:36.865Z,36.36
2017-05-01T13:33:38.199Z,36.87
2017-05-01T13:34:39.520Z,37.25
2017-05-01T13:35:40.810Z,36.85
2017-05-01T13:36:42.466Z,36.38
2017-05-01T13:37:44.023Z,36.07
2017-05-01T13:38:45.305Z,36.07
2017-05-01T13:39:46.594Z,36.07
2017-05-01T13:40:47.935Z,36.07
2017-05-01T13:41:49.304Z,35.88
2017-05-01T13:42:50.610Z,36.07
2017-05-01T13:43:51.898Z,36.17
2017-05-01T13:44:53.186Z,35.98
2017-05-01T13:45:54.471Z,35.98
2017-05-01T13:46:55.773Z,36.07
2017-05-01T13:47:57.065Z,35.98
2017-05-01T13:48:58.351Z,35.88
2017-05-01T13:49:59.639Z,35.98
2017-05-01T13:51:00.931Z,35.69
2017-05-01T13:52:02.287Z,35.98
2017-05-01T13:53:03.581Z,35.78
2017-05-01T13:54:04.869Z,36.17
2017-05-01T13:55:06.202Z,37.33
2017-05-01T13:56:07.489Z,36.94
2017-05-01T13:57:08.776Z,37.23
2017-05-01T13:58:10.066Z,37.13
2017-05-01T13:59:11.354Z,36.46
2017-05-01T14:00:12.642Z,36.36
2017-05-01T14:01:13.956Z,36.36
2017-05-01T14:02:15.245Z,36.36
2017-05-01T14:03:16.534Z,36.27
2017-05-01T14:04:17.826Z,36.55
2017-05-01T14:05:19.135Z,36.94
2017-05-01T14:06:20.420Z,36.75
2017-05-01T14:07:21.709Z,36.75
2017-05-01T14:08:22.996Z,36.55
2017-05-01T14:09:24.284Z,36.46
2017-05-01T14:10:25.572Z,36.36
2017-05-01T14:11:26.860Z,36.27
2017-05-01T14:12:28.151Z,36.38
2017-05-01T14:13:29.440Z,37.62
2017-05-01T14:14:30.730Z,37.52
2017-05-01T14:15:32.017Z,37.23
2017-05-01T14:16:33.306Z,36.85
2017-05-01T14:17:34.600Z,37.33
2017-05-01T14:18:35.886Z,37.13
2017-05-01T14:19:37.176Z,37.13
2017-05-01T14:20:38.466Z,37.33
2017-05-01T14:21:39.752Z,37.04
2017-05-01T14:22:41.046Z,36.94
2017-05-01T14:23:42.330Z,36.75
2017-05-01T14:24:43.711Z,36.85
2017-05-01T14:25:44.999Z,36.85
2017-05-01T14:26:46.288Z,37.04
2017-05-01T14:27:47.573Z,36.85
2017-05-01T14:28:48.868Z,36.75
2017-05-01T14:29:50.156Z,37.13
2017-05-01T14:30:51.444Z,36.75
2017-05-01T14:31:52.733Z,37.13
2017-05-01T14:32:54.023Z,37.33
2017-05-01T14:33:55.309Z,37.23
2017-05-01T14:34:56.597Z,37.33
2017-05-01T14:35:57.891Z,36.85
2017-05-01T14:36:59.183Z,36.55
2017-05-01T14:38:00.468Z,37.13
2017-05-01T14:39:01.770Z,37.04
2017-05-01T14:40:03.049Z,37.04
2017-05-01T14:41:04.339Z,37.13
2017-05-01T14:42:05.627Z,37.13
2017-05-01T14:43:06.916Z,37.13
2017-05-01T14:44:08.204Z,36.85
2017-05-01T14:45:09.496Z,37.13
2017-05-01T14:46:10.785Z,36.94
2017-05-01T14:47:12.074Z,37.13
2017-05-01T14:48:13.361Z,36.65
2017-05-01T14:49:14.649Z,37.04
2017-05-01T14:50:15.946Z,37.33
2017-05-01T14:51:17.226Z,39.36
2017-05-01T14:52:18.536Z,39.54
2017-05-01T14:53:19.903Z,39.54
2017-05-01T14:54:21.187Z,38.87
2017-05-01T14:55:22.474Z,38.10
2017-05-01T14:56:23.773Z,38.10
2017-05-01T14:57:25.217Z,38.01
2017-05-01T14:58:26.510Z,37.62
2017-05-01T14:59:27.797Z,37.79
2017-05-01T15:00:29.084Z,38.18
2017-05-01T15:01:30.372Z,38.08
2017-05-01T15:02:31.678Z,38.18
2017-05-01T15:03:32.965Z,38.18
2017-05-01T15:04:34.265Z,38.28
2017-05-01T15:05:35.554Z,37.79
2017-05-01T15:06:36.842Z,37.70
2017-05-01T15:07:38.130Z,37.89
2017-05-01T15:08:39.465Z,37.89
2017-05-01T15:09:40.752Z,38.28
2017-05-01T15:10:42.044Z,38.37
2017-05-01T15:11:43.330Z,37.98
2017-05-01T15:12:44.620Z,37.89
2017-05-01T15:13:45.909Z,38.08
2017-05-01T15:14:47.199Z,38.37
2017-05-01T15:15:48.487Z,38.66
2017-05-01T15:16:49.778Z,38.66
2017-05-01T15:17:51.110Z,38.39
2017-05-01T15:18:52.393Z,38.20
2017-05-01T15:19:53.675Z,38.08
2017-05-01T15:20:54.998Z,38.01
2017-05-01T15:21:56.269Z,37.79
2017-05-01T15:22:57.564Z,37.98
2017-05-01T15:23:58.849Z,38.18
2017-05-01T15:25:00.141Z,38.29
2017-05-01T15:26:01.430Z,38.18
2017-05-01T15:27:02.715Z,38.68
2017-05-01T15:28:04.005Z,38.68
2017-05-01T15:29:05.293Z,38.78
2017-05-01T15:30:06.580Z,38.58
2017-05-01T15:31:07.869Z,39.36
2017-05-01T15:32:09.159Z,38.58
2017-05-01T15:33:10.446Z,39.45
2017-05-01T15:34:11.773Z,39.26
2017-05-01T15:35:13.067Z,39.26
2017-05-01T15:36:14.350Z,38.87
2017-05-01T15:37:15.638Z,39.36
2017-05-01T15:38:16.945Z,38.58
2017-05-01T15:39:18.238Z,38.20
2017-05-01T15:40:19.523Z,38.39
2017-05-01T15:41:20.814Z,38.01
2017-05-01T15:42:22.103Z,38.29
2017-05-01T15:43:23.394Z,38.68
2017-05-01T15:44:24.684Z,38.39
2017-05-01T15:45:25.985Z,38.20
2017-05-01T15:46:27.280Z,37.81
2017-05-01T15:47:28.568Z,37.33
2017-05-01T15:48:29.856Z,37.54
2017-05-01T15:49:31.150Z,38.10
2017-05-01T15:50:32.439Z,38.49
2017-05-01T15:51:33.839Z,38.39
2017-05-01T15:52:35.131Z,38.31
2017-05-01T15:53:36.424Z,38.10
2017-05-01T15:54:37.710Z,38.68
2017-05-01T15:55:38.997Z,38.21
2017-05-01T15:56:40.289Z,38.20